sensor_id;sensor_type;location;lat;lon;timestamp;pressure;altitude;pressure_sealevel;temperature;humidity
84995;BME280;75312;47.528;19.016;2024-02-21T00:00:03;99686.19;;;7.01;78.67
84995;BME280;75312;47.528;19.016;2024-02-21T00:00:38;99691.53;;;7.00;79.40
84995;BME280;75312;47.528;19.016;2024-02-21T00:01:18;99687.84;;;7.02;79.50
84995;BME280;75312;47.528;19.016;2024-02-21T00:01:51;99697.97;;;7.07;79.06
84995;BME280;75312;47.528;19.016;2024-02-21T00:02:21;99692.84;;;7.05;78.72
84995;BME280;75312;47.528;19.016;2024-02-21T00:02:57;99694.97;;;7.00;79.13
84995;BME280;75312;47.528;19.016;2024-02-21T00:03:31;99696.03;;;6.98;79.25
84995;BME280;75312;47.528;19.016;2024-02-21T00:04:04;99698.41;;;7.01;79.70
84995;BME280;75312;47.528;19.016;2024-02-21T00:04:37;99692.41;;;7.12;78.99
84995;BME280;75312;47.528;19.016;2024-02-21T00:05:11;99692.84;;;7.05;79.26
84995;BME280;75312;47.528;19.016;2024-02-21T00:05:43;99692.00;;;7.05;78.85
84995;BME280;75312;47.528;19.016;2024-02-21T00:06:14;99695.91;;;6.99;79.42
84995;BME280;75312;47.528;19.016;2024-02-21T00:06:45;99693.50;;;6.96;79.24
84995;BME280;75312;47.528;19.016;2024-02-21T00:07:15;99693.59;;;7.08;79.24
84995;BME280;75312;47.528;19.016;2024-02-21T00:07:51;99690.75;;;7.11;79.21
84995;BME280;75312;47.528;19.016;2024-02-21T00:08:22;99697.72;;;7.10;79.13
84995;BME280;75312;47.528;19.016;2024-02-21T00:08:55;99697.84;;;7.09;79.34
84995;BME280;75312;47.528;19.016;2024-02-21T00:09:28;99688.97;;;7.11;79.77
84995;BME280;75312;47.528;19.016;2024-02-21T00:09:59;99689.63;;;7.26;78.68
84995;BME280;75312;47.528;19.016;2024-02-21T00:10:30;99691.69;;;7.10;79.18
84995;BME280;75312;47.528;19.016;2024-02-21T00:11:07;99693.72;;;6.93;80.39
84995;BME280;75312;47.528;19.016;2024-02-21T00:11:37;99704.09;;;7.06;79.73
84995;BME280;75312;47.528;19.016;2024-02-21T00:12:08;99693.47;;;7.09;79.72
84995;BME280;75312;47.528;19.016;2024-02-21T00:12:41;99695.84;;;7.12;79.30
84995;BME280;75312;47.528;19.016;2024-02-21T00:13:11;99699.16;;;7.14;79.69
84995;BME280;75312;47.528;19.016;2024-02-21T00:13:45;99689.59;;;7.15;79.20
84995;BME280;75312;47.528;19.016;2024-02-21T00:14:15;99695.34;;;7.07;80.08
84995;BME280;75312;47.528;19.016;2024-02-21T00:14:48;99693.34;;;7.11;79.86
84995;BME280;75312;47.528;19.016;2024-02-21T00:15:19;99691.97;;;7.18;78.96
84995;BME280;75312;47.528;19.016;2024-02-21T00:15:53;99683.53;;;7.14;79.43
84995;BME280;75312;47.528;19.016;2024-02-21T00:16:27;99685.09;;;7.17;79.71
84995;BME280;75312;47.528;19.016;2024-02-21T00:16:59;99691.84;;;7.19;79.28
84995;BME280;75312;47.528;19.016;2024-02-21T00:17:30;99693.88;;;7.16;79.75
84995;BME280;75312;47.528;19.016;2024-02-21T00:18:03;99687.84;;;7.02;80.25
84995;BME280;75312;47.528;19.016;2024-02-21T00:18:39;99685.78;;;7.08;79.94
84995;BME280;75312;47.528;19.016;2024-02-21T00:19:12;99680.59;;;6.95;80.48
84995;BME280;75312;47.528;19.016;2024-02-21T00:19:44;99684.19;;;7.05;79.99
84995;BME280;75312;47.528;19.016;2024-02-21T00:20:14;99684.09;;;7.07;80.25
84995;BME280;75312;47.528;19.016;2024-02-21T00:20:48;99675.06;;;6.99;80.04
84995;BME280;75312;47.528;19.016;2024-02-21T00:21:21;99688.56;;;7.04;79.81
84995;BME280;75312;47.528;19.016;2024-02-21T00:21:53;99678.66;;;7.10;80.17
84995;BME280;75312;47.528;19.016;2024-02-21T00:22:24;99675.81;;;7.13;79.86
84995;BME280;75312;47.528;19.016;2024-02-21T00:22:58;99675.63;;;7.16;79.37
84995;BME280;75312;47.528;19.016;2024-02-21T00:23:29;99677.16;;;7.18;79.80
84995;BME280;75312;47.528;19.016;2024-02-21T00:23:59;99677.22;;;7.05;79.55
84995;BME280;75312;47.528;19.016;2024-02-21T00:24:30;99677.00;;;7.09;79.70
84995;BME280;75312;47.528;19.016;2024-02-21T00:25:03;99675.00;;;7.12;79.76
84995;BME280;75312;47.528;19.016;2024-02-21T00:25:34;99673.09;;;7.14;79.47
84995;BME280;75312;47.528;19.016;2024-02-21T00:26:04;99677.28;;;7.17;79.54
84995;BME280;75312;47.528;19.016;2024-02-21T00:26:38;99669.22;;;7.20;79.17
84995;BME280;75312;47.528;19.016;2024-02-21T00:27:11;99676.00;;;7.22;79.57
84995;BME280;75312;47.528;19.016;2024-02-21T00:27:44;99667.59;;;7.30;78.97
84995;BME280;75312;47.528;19.016;2024-02-21T00:28:15;99675.44;;;7.30;78.84
84995;BME280;75312;47.528;19.016;2024-02-21T00:28:45;99664.41;;;7.26;79.29
84995;BME280;75312;47.528;19.016;2024-02-21T00:29:18;99669.38;;;7.29;78.80
84995;BME280;75312;47.528;19.016;2024-02-21T00:29:49;99671.16;;;7.29;78.76
84995;BME280;75312;47.528;19.016;2024-02-21T00:30:21;99670.22;;;7.30;78.88
84995;BME280;75312;47.528;19.016;2024-02-21T00:30:52;99672.66;;;7.20;78.50
84995;BME280;75312;47.528;19.016;2024-02-21T00:31:23;99677.69;;;7.23;78.71
84995;BME280;75312;47.528;19.016;2024-02-21T00:31:54;99676.34;;;7.18;78.71
84995;BME280;75312;47.528;19.016;2024-02-21T00:32:24;99675.81;;;7.13;79.01
84995;BME280;75312;47.528;19.016;2024-02-21T00:32:55;99668.97;;;7.12;79.10
84995;BME280;75312;47.528;19.016;2024-02-21T00:33:25;99667.06;;;7.14;78.84
84995;BME280;75312;47.528;19.016;2024-02-21T00:33:56;99671.50;;;7.00;79.35
84995;BME280;75312;47.528;19.016;2024-02-21T00:34:26;99664.41;;;7.02;79.41
84995;BME280;75312;47.528;19.016;2024-02-21T00:35:01;99668.19;;;6.98;79.24
84995;BME280;75312;47.528;19.016;2024-02-21T00:35:32;99661.50;;;7.07;79.14
84995;BME280;75312;47.528;19.016;2024-02-21T00:36:03;99661.25;;;7.10;78.80
84995;BME280;75312;47.528;19.016;2024-02-21T00:36:33;99666.22;;;7.13;78.64
84995;BME280;75312;47.528;19.016;2024-02-21T00:37:04;99660.06;;;7.14;78.84
84995;BME280;75312;47.528;19.016;2024-02-21T00:37:34;99663.53;;;7.15;78.80
84995;BME280;75312;47.528;19.016;2024-02-21T00:38:07;99662.81;;;7.13;78.91
84995;BME280;75312;47.528;19.016;2024-02-21T00:38:40;99663.78;;;7.23;78.90
84995;BME280;75312;47.528;19.016;2024-02-21T00:39:13;99659.75;;;7.19;78.10
84995;BME280;75312;47.528;19.016;2024-02-21T00:39:46;99658.06;;;7.07;78.39
84995;BME280;75312;47.528;19.016;2024-02-21T00:40:16;99666.19;;;7.02;nan
84995;BME280;75312;47.528;19.016;2024-02-21T00:40:52;99658.22;;;7.16;78.04
84995;BME280;75312;47.528;19.016;2024-02-21T00:41:22;99656.31;;;7.18;77.53
84995;BME280;75312;47.528;19.016;2024-02-21T00:41:53;99658.59;;;6.99;78.45
84995;BME280;75312;47.528;19.016;2024-02-21T00:42:26;99652.66;;;6.97;78.39
84995;BME280;75312;47.528;19.016;2024-02-21T00:42:59;99662.25;;;6.96;78.28
84995;BME280;75312;47.528;19.016;2024-02-21T00:43:30;99661.16;;;7.12;77.73
84995;BME280;75312;47.528;19.016;2024-02-21T00:44:00;99657.13;;;7.08;77.44
84995;BME280;75312;47.528;19.016;2024-02-21T00:44:31;99657.19;;;7.06;77.31
84995;BME280;75312;47.528;19.016;2024-02-21T00:45:02;99661.94;;;7.01;78.15
84995;BME280;75312;47.528;19.016;2024-02-21T00:45:36;99659.16;;;7.15;76.37
84995;BME280;75312;47.528;19.016;2024-02-21T00:46:08;99660.59;;;7.19;76.22
84995;BME280;75312;47.528;19.016;2024-02-21T00:46:39;99651.78;;;7.09;76.08
84995;BME280;75312;47.528;19.016;2024-02-21T00:47:12;99651.16;;;7.05;76.53
84995;BME280;75312;47.528;19.016;2024-02-21T00:47:45;99651.91;;;7.08;76.85
84995;BME280;75312;47.528;19.016;2024-02-21T00:48:15;99650.00;;;7.10;76.82
84995;BME280;75312;47.528;19.016;2024-02-21T00:48:46;99652.00;;;7.06;76.44
84995;BME280;75312;47.528;19.016;2024-02-21T00:49:16;99653.31;;;7.12;76.38
84995;BME280;75312;47.528;19.016;2024-02-21T00:49:49;99654.16;;;7.12;76.24
84995;BME280;75312;47.528;19.016;2024-02-21T00:50:20;99647.06;;;7.14;76.21
84995;BME280;75312;47.528;19.016;2024-02-21T00:50:51;99655.38;;;7.19;76.30
84995;BME280;75312;47.528;19.016;2024-02-21T00:51:24;99647.84;;;7.27;75.58
84995;BME280;75312;47.528;19.016;2024-02-21T00:51:55;99649.22;;;7.20;75.78
84995;BME280;75312;47.528;19.016;2024-02-21T00:52:25;99646.97;;;7.16;75.87
84995;BME280;75312;47.528;19.016;2024-02-21T00:52:56;99650.53;;;7.15;75.85
84995;BME280;75312;47.528;19.016;2024-02-21T00:53:29;99646.63;;;7.20;76.02
84995;BME280;75312;47.528;19.016;2024-02-21T00:54:02;99649.34;;;7.19;76.32
84995;BME280;75312;47.528;19.016;2024-02-21T00:54:32;99660.34;;;7.22;75.59
84995;BME280;75312;47.528;19.016;2024-02-21T00:55:06;99642.91;;;7.12;75.63
84995;BME280;75312;47.528;19.016;2024-02-21T00:55:36;99656.50;;;7.04;75.38
84995;BME280;75312;47.528;19.016;2024-02-21T00:56:07;99649.28;;;7.08;75.27
84995;BME280;75312;47.528;19.016;2024-02-21T00:56:40;99643.84;;;7.11;74.96
84995;BME280;75312;47.528;19.016;2024-02-21T00:57:13;99652.56;;;6.98;75.16
84995;BME280;75312;47.528;19.016;2024-02-21T00:57:43;99655.50;;;7.18;74.72
84995;BME280;75312;47.528;19.016;2024-02-21T00:58:14;99648.38;;;7.20;75.00
84995;BME280;75312;47.528;19.016;2024-02-21T00:58:44;99666.34;;;7.12;75.21
84995;BME280;75312;47.528;19.016;2024-02-21T00:59:18;99651.91;;;7.08;75.52
84995;BME280;75312;47.528;19.016;2024-02-21T00:59:48;99654.38;;;7.09;75.33
84995;BME280;75312;47.528;19.016;2024-02-21T01:00:19;99653.94;;;7.15;75.34
84995;BME280;75312;47.528;19.016;2024-02-21T01:00:49;99658.88;;;7.07;75.03
84995;BME280;75312;47.528;19.016;2024-02-21T01:01:26;99651.75;;;6.98;75.36
84995;BME280;75312;47.528;19.016;2024-02-21T01:02:01;99654.78;;;6.92;76.19
84995;BME280;75312;47.528;19.016;2024-02-21T01:02:32;99654.44;;;6.96;75.84
84995;BME280;75312;47.528;19.016;2024-02-21T01:03:05;99654.78;;;6.92;75.51
84995;BME280;75312;47.528;19.016;2024-02-21T01:03:39;99650.06;;;6.97;75.57
84995;BME280;75312;47.528;19.016;2024-02-21T01:04:10;99649.84;;;7.00;75.25
84995;BME280;75312;47.528;19.016;2024-02-21T01:04:42;99652.88;;;7.18;74.96
84995;BME280;75312;47.528;19.016;2024-02-21T01:05:15;99657.53;;;7.01;74.55
84995;BME280;75312;47.528;19.016;2024-02-21T01:05:48;99646.91;;;7.04;75.41
84995;BME280;75312;47.528;19.016;2024-02-21T01:06:23;99650.34;;;7.05;75.34
84995;BME280;75312;47.528;19.016;2024-02-21T01:06:54;99647.97;;;7.02;74.90
84995;BME280;75312;47.528;19.016;2024-02-21T01:07:24;99645.03;;;7.07;75.12
84995;BME280;75312;47.528;19.016;2024-02-21T01:07:58;99647.84;;;7.03;74.86
84995;BME280;75312;47.528;19.016;2024-02-21T01:08:29;99665.53;;;7.11;74.60
84995;BME280;75312;47.528;19.016;2024-02-21T01:09:02;99655.00;;;7.13;74.25
84995;BME280;75312;47.528;19.016;2024-02-21T01:09:35;99650.84;;;7.10;74.87
84995;BME280;75312;47.528;19.016;2024-02-21T01:10:06;99648.94;;;7.12;74.70
84995;BME280;75312;47.528;19.016;2024-02-21T01:10:39;99656.72;;;7.25;74.32
84995;BME280;75312;47.528;19.016;2024-02-21T01:11:10;99654.28;;;7.11;74.32
84995;BME280;75312;47.528;19.016;2024-02-21T01:11:43;99647.72;;;7.05;74.43
84995;BME280;75312;47.528;19.016;2024-02-21T01:12:17;99648.94;;;7.12;74.58
84995;BME280;75312;47.528;19.016;2024-02-21T01:12:50;99653.69;;;7.07;75.00
84995;BME280;75312;47.528;19.016;2024-02-21T01:13:22;99651.28;;;7.04;74.79
84995;BME280;75312;47.528;19.016;2024-02-21T01:13:55;99661.41;;;6.96;74.76
84995;BME280;75312;47.528;19.016;2024-02-21T01:14:30;99656.66;;;6.90;74.91
84995;BME280;75312;47.528;19.016;2024-02-21T01:15:03;99666.63;;;6.96;75.19
84995;BME280;75312;47.528;19.016;2024-02-21T01:15:35;99660.00;;;6.92;75.27
84995;BME280;75312;47.528;19.016;2024-02-21T01:16:08;99657.78;;;6.98;75.14
84995;BME280;75312;47.528;19.016;2024-02-21T01:16:38;99654.81;;;7.03;75.21
84995;BME280;75312;47.528;19.016;2024-02-21T01:17:11;99659.72;;;7.08;74.68
84995;BME280;75312;47.528;19.016;2024-02-21T01:17:41;99651.78;;;7.09;74.76
84995;BME280;75312;47.528;19.016;2024-02-21T01:18:12;99649.97;;;6.98;75.02
84995;BME280;75312;47.528;19.016;2024-02-21T01:18:45;99653.28;;;7.00;75.07
84995;BME280;75312;47.528;19.016;2024-02-21T01:19:16;99657.03;;;6.96;74.90
84995;BME280;75312;47.528;19.016;2024-02-21T01:19:46;99659.81;;;7.06;74.74
84995;BME280;75312;47.528;19.016;2024-02-21T01:20:22;99664.75;;;6.98;75.35
84995;BME280;75312;47.528;19.016;2024-02-21T01:20:58;99660.97;;;7.02;75.13
84995;BME280;75312;47.528;19.016;2024-02-21T01:21:29;99653.22;;;7.13;74.87
84995;BME280;75312;47.528;19.016;2024-02-21T01:22:03;99649.63;;;7.03;74.83
84995;BME280;75312;47.528;19.016;2024-02-21T01:22:33;99658.81;;;6.96;75.35
84995;BME280;75312;47.528;19.016;2024-02-21T01:23:04;99654.13;;;7.01;75.11
84995;BME280;75312;47.528;19.016;2024-02-21T01:23:35;99663.34;;;7.05;75.11
84995;BME280;75312;47.528;19.016;2024-02-21T01:24:09;99659.44;;;6.99;75.03
84995;BME280;75312;47.528;19.016;2024-02-21T01:24:39;99650.56;;;7.02;74.66
84995;BME280;75312;47.528;19.016;2024-02-21T01:25:10;99654.94;;;7.01;75.43
84995;BME280;75312;47.528;19.016;2024-02-21T01:25:40;99660.38;;;6.98;75.55
84995;BME280;75312;47.528;19.016;2024-02-21T01:26:11;99654.34;;;6.98;75.67
84995;BME280;75312;47.528;19.016;2024-02-21T01:26:44;99655.06;;;7.00;75.12
84995;BME280;75312;47.528;19.016;2024-02-21T01:27:14;99656.16;;;7.09;74.84
84995;BME280;75312;47.528;19.016;2024-02-21T01:27:45;99650.72;;;7.12;75.40
84995;BME280;75312;47.528;19.016;2024-02-21T01:28:15;99664.81;;;7.09;75.59
84995;BME280;75312;47.528;19.016;2024-02-21T01:28:46;99654.53;;;7.19;74.80
84995;BME280;75312;47.528;19.016;2024-02-21T01:29:17;99649.50;;;7.04;75.69
84995;BME280;75312;47.528;19.016;2024-02-21T01:29:49;99659.91;;;7.04;75.46
84995;BME280;75312;47.528;19.016;2024-02-21T01:30:20;99655.88;;;7.00;75.54
84995;BME280;75312;47.528;19.016;2024-02-21T01:30:50;99653.88;;;7.04;75.76
84995;BME280;75312;47.528;19.016;2024-02-21T01:31:23;99649.63;;;7.03;75.91
84995;BME280;75312;47.528;19.016;2024-02-21T01:31:54;99651.91;;;7.08;75.43
84995;BME280;75312;47.528;19.016;2024-02-21T01:32:27;99654.00;;;7.02;75.34
84995;BME280;75312;47.528;19.016;2024-02-21T01:33:02;99660.31;;;7.11;75.36
84995;BME280;75312;47.528;19.016;2024-02-21T01:33:33;99650.56;;;7.02;75.37
84995;BME280;75312;47.528;19.016;2024-02-21T01:34:05;99651.75;;;6.98;75.46
84995;BME280;75312;47.528;19.016;2024-02-21T01:34:38;99644.84;;;6.97;75.60
84995;BME280;75312;47.528;19.016;2024-02-21T01:35:14;99654.13;;;7.01;75.99
84995;BME280;75312;47.528;19.016;2024-02-21T01:35:44;99654.91;;;6.90;76.40
84995;BME280;75312;47.528;19.016;2024-02-21T01:36:15;99650.59;;;6.89;76.15
84995;BME280;75312;47.528;19.016;2024-02-21T01:36:51;99643.28;;;6.70;76.98
84995;BME280;75312;47.528;19.016;2024-02-21T01:37:26;99641.69;;;6.81;77.17
84995;BME280;75312;47.528;19.016;2024-02-21T01:37:59;99639.28;;;6.90;76.27
84995;BME280;75312;47.528;19.016;2024-02-21T01:38:30;99671.66;;;6.86;77.11
84995;BME280;75312;47.528;19.016;2024-02-21T01:39:02;99657.28;;;6.93;76.32
84995;BME280;75312;47.528;19.016;2024-02-21T01:39:33;99640.81;;;6.93;76.44
84995;BME280;75312;47.528;19.016;2024-02-21T01:40:04;99646.53;;;6.98;76.24
84995;BME280;75312;47.528;19.016;2024-02-21T01:40:35;99644.53;;;7.01;76.50
84995;BME280;75312;47.528;19.016;2024-02-21T01:41:10;99646.84;;;6.93;76.69
84995;BME280;75312;47.528;19.016;2024-02-21T01:41:41;99642.91;;;6.88;76.92
84995;BME280;75312;47.528;19.016;2024-02-21T01:42:11;99647.28;;;6.87;76.77
84995;BME280;75312;47.528;19.016;2024-02-21T01:42:44;99645.78;;;6.96;76.54
84995;BME280;75312;47.528;19.016;2024-02-21T01:43:20;99652.22;;;7.03;76.57
84995;BME280;75312;47.528;19.016;2024-02-21T01:43:51;99647.91;;;6.91;76.89
84995;BME280;75312;47.528;19.016;2024-02-21T01:44:24;99653.72;;;6.94;76.61
84995;BME280;75312;47.528;19.016;2024-02-21T01:44:54;99640.56;;;6.96;76.87
84995;BME280;75312;47.528;19.016;2024-02-21T01:45:25;99645.03;;;6.83;77.21
84995;BME280;75312;47.528;19.016;2024-02-21T01:45:57;99644.09;;;6.84;77.24
84995;BME280;75312;47.528;19.016;2024-02-21T01:46:28;99644.00;;;6.72;77.96
84995;BME280;75312;47.528;19.016;2024-02-21T01:47:01;99646.81;;;6.82;77.57
84995;BME280;75312;47.528;19.016;2024-02-21T01:47:37;99647.44;;;6.97;77.03
84995;BME280;75312;47.528;19.016;2024-02-21T01:48:08;99648.28;;;6.97;76.50
84995;BME280;75312;47.528;19.016;2024-02-21T01:48:39;99649.56;;;6.92;77.11
84995;BME280;75312;47.528;19.016;2024-02-21T01:49:10;99639.28;;;6.90;77.06
84995;BME280;75312;47.528;19.016;2024-02-21T01:49:41;99644.19;;;6.82;77.50
84995;BME280;75312;47.528;19.016;2024-02-21T01:50:12;99639.59;;;6.86;77.65
84995;BME280;75312;47.528;19.016;2024-02-21T01:50:49;99647.50;;;6.84;77.62
84995;BME280;75312;47.528;19.016;2024-02-21T01:51:19;99651.91;;;6.84;77.66
84995;BME280;75312;47.528;19.016;2024-02-21T01:51:53;99647.41;;;6.86;77.26
84995;BME280;75312;47.528;19.016;2024-02-21T01:52:26;99648.19;;;6.75;77.71
84995;BME280;75312;47.528;19.016;2024-02-21T01:52:57;99643.91;;;6.74;77.61
84995;BME280;75312;47.528;19.016;2024-02-21T01:53:30;99644.34;;;6.68;78.19
84995;BME280;75312;47.528;19.016;2024-02-21T01:54:06;99627.53;;;6.72;77.81
84995;BME280;75312;47.528;19.016;2024-02-21T01:54:39;99644.00;;;6.72;78.26
84995;BME280;75312;47.528;19.016;2024-02-21T01:55:13;99640.38;;;6.62;78.73
84995;BME280;75312;47.528;19.016;2024-02-21T01:55:45;99636.66;;;6.66;78.68
84995;BME280;75312;47.528;19.016;2024-02-21T01:56:16;99642.56;;;6.68;78.58
84995;BME280;75312;47.528;19.016;2024-02-21T01:56:49;99656.16;;;6.85;78.05
84995;BME280;75312;47.528;19.016;2024-02-21T01:57:21;99643.91;;;6.74;78.46
84995;BME280;75312;47.528;19.016;2024-02-21T01:57:53;99635.03;;;6.76;78.11
84995;BME280;75312;47.528;19.016;2024-02-21T01:58:23;99635.94;;;6.64;78.66
84995;BME280;75312;47.528;19.016;2024-02-21T01:58:57;99641.38;;;6.72;77.95
84995;BME280;75312;47.528;19.016;2024-02-21T01:59:31;99648.28;;;6.73;78.35
84995;BME280;75312;47.528;19.016;2024-02-21T02:00:04;99643.09;;;6.61;79.17
84995;BME280;75312;47.528;19.016;2024-02-21T02:00:38;99648.94;;;6.64;78.92
84995;BME280;75312;47.528;19.016;2024-02-21T02:01:13;99645.72;;;6.61;79.33
84995;BME280;75312;47.528;19.016;2024-02-21T02:01:44;99644.75;;;6.74;78.52
84995;BME280;75312;47.528;19.016;2024-02-21T02:02:17;99636.94;;;6.74;77.98
84995;BME280;75312;47.528;19.016;2024-02-21T02:02:49;99646.00;;;6.69;78.67
84995;BME280;75312;47.528;19.016;2024-02-21T02:03:22;99644.22;;;6.69;78.87
84995;BME280;75312;47.528;19.016;2024-02-21T02:03:53;99640.97;;;6.78;78.77
84995;BME280;75312;47.528;19.016;2024-02-21T02:04:25;99653.50;;;6.73;78.59
84995;BME280;75312;47.528;19.016;2024-02-21T02:04:57;99642.44;;;6.83;78.16
84995;BME280;75312;47.528;19.016;2024-02-21T02:05:28;99648.88;;;6.77;78.30
84995;BME280;75312;47.528;19.016;2024-02-21T02:05:59;99644.84;;;6.73;78.79
84995;BME280;75312;47.528;19.016;2024-02-21T02:06:30;99647.00;;;6.79;78.10
84995;BME280;75312;47.528;19.016;2024-02-21T02:07:08;99641.97;;;6.65;78.90
84995;BME280;75312;47.528;19.016;2024-02-21T02:07:41;99646.22;;;6.66;78.63
84995;BME280;75312;47.528;19.016;2024-02-21T02:08:14;99649.59;;;6.79;78.63
84995;BME280;75312;47.528;19.016;2024-02-21T02:08:47;99647.25;;;6.63;79.06
84995;BME280;75312;47.528;19.016;2024-02-21T02:09:20;99659.84;;;6.69;78.84
84995;BME280;75312;47.528;19.016;2024-02-21T02:09:52;99649.44;;;6.69;78.62
84995;BME280;75312;47.528;19.016;2024-02-21T02:10:26;99651.56;;;6.64;79.38
84995;BME280;75312;47.528;19.016;2024-02-21T02:10:57;99657.84;;;6.49;79.43
84995;BME280;75312;47.528;19.016;2024-02-21T02:11:31;99648.66;;;6.56;79.73
84995;BME280;75312;47.528;19.016;2024-02-21T02:12:02;99660.44;;;6.49;79.93
84995;BME280;75312;47.528;19.016;2024-02-21T02:12:33;99654.56;;;6.58;79.67
84995;BME280;75312;47.528;19.016;2024-02-21T02:13:06;99658.31;;;6.54;79.97
84995;BME280;75312;47.528;19.016;2024-02-21T02:13:39;99658.31;;;6.67;79.43
84995;BME280;75312;47.528;19.016;2024-02-21T02:14:10;99655.19;;;6.62;79.28
84995;BME280;75312;47.528;19.016;2024-02-21T02:14:43;99665.84;;;6.46;80.37
84995;BME280;75312;47.528;19.016;2024-02-21T02:15:16;99650.75;;;6.51;79.56
84995;BME280;75312;47.528;19.016;2024-02-21T02:15:49;99657.28;;;6.57;80.06
84995;BME280;75312;47.528;19.016;2024-02-21T02:16:20;99667.72;;;6.57;79.55
84995;BME280;75312;47.528;19.016;2024-02-21T02:16:53;99654.16;;;6.52;79.96
84995;BME280;75312;47.528;19.016;2024-02-21T02:17:26;99668.97;;;6.51;80.33
84995;BME280;75312;47.528;19.016;2024-02-21T02:17:59;99652.28;;;6.54;79.72
84995;BME280;75312;47.528;19.016;2024-02-21T02:18:32;99655.72;;;6.54;80.08
84995;BME280;75312;47.528;19.016;2024-02-21T02:19:03;99664.03;;;6.59;80.17
84995;BME280;75312;47.528;19.016;2024-02-21T02:19:33;99669.53;;;6.67;79.36
84995;BME280;75312;47.528;19.016;2024-02-21T02:20:05;99664.94;;;6.71;78.78
84995;BME280;75312;47.528;19.016;2024-02-21T02:20:38;99652.25;;;6.66;79.22
84995;BME280;75312;47.528;19.016;2024-02-21T02:21:16;99659.03;;;6.69;79.15
84995;BME280;75312;47.528;19.016;2024-02-21T02:22:01;99652.69;;;6.60;79.65
84995;BME280;75312;47.528;19.016;2024-02-21T02:22:37;99660.56;;;6.71;79.31
84995;BME280;75312;47.528;19.016;2024-02-21T02:24:02;99645.66;;;6.49;79.64
84995;BME280;75312;47.528;19.016;2024-02-21T02:24:33;99658.53;;;6.51;79.59
84995;BME280;75312;47.528;19.016;2024-02-21T02:25:04;99645.41;;;6.53;80.04
84995;BME280;75312;47.528;19.016;2024-02-21T02:25:35;99651.69;;;6.50;79.50
84995;BME280;75312;47.528;19.016;2024-02-21T02:26:09;99654.56;;;6.58;79.89
84995;BME280;75312;47.528;19.016;2024-02-21T02:26:40;99643.34;;;6.58;79.77
84995;BME280;75312;47.528;19.016;2024-02-21T02:27:10;99650.50;;;6.54;79.51
84995;BME280;75312;47.528;19.016;2024-02-21T02:27:42;99654.28;;;6.50;79.82
84995;BME280;75312;47.528;19.016;2024-02-21T02:28:15;99653.16;;;6.41;80.49
84995;BME280;75312;47.528;19.016;2024-02-21T02:28:46;99644.94;;;6.47;79.95
84995;BME280;75312;47.528;19.016;2024-02-21T02:29:19;99649.72;;;6.41;80.12
84995;BME280;75312;47.528;19.016;2024-02-21T02:29:54;99649.84;;;6.39;80.47
84995;BME280;75312;47.528;19.016;2024-02-21T02:30:30;99645.25;;;6.30;80.70
84995;BME280;75312;47.528;19.016;2024-02-21T02:31:05;99644.41;;;6.30;80.79
84995;BME280;75312;47.528;19.016;2024-02-21T02:31:38;99647.47;;;6.24;81.24
84995;BME280;75312;47.528;19.016;2024-02-21T02:32:08;99648.25;;;6.37;80.80
84995;BME280;75312;47.528;19.016;2024-02-21T02:32:39;99651.38;;;6.42;80.44
84995;BME280;75312;47.528;19.016;2024-02-21T02:33:13;99639.72;;;6.47;80.52
84995;BME280;75312;47.528;19.016;2024-02-21T02:33:49;99649.63;;;6.42;80.35
84995;BME280;75312;47.528;19.016;2024-02-21T02:34:23;99640.63;;;6.46;80.42
84995;BME280;75312;47.528;19.016;2024-02-21T02:34:53;99635.88;;;6.40;80.33
84995;BME280;75312;47.528;19.016;2024-02-21T02:35:24;99669.50;;;6.43;80.67
84995;BME280;75312;47.528;19.016;2024-02-21T02:35:55;99652.09;;;6.44;80.35
84995;BME280;75312;47.528;19.016;2024-02-21T02:36:25;99646.59;;;6.48;80.53
84995;BME280;75312;47.528;19.016;2024-02-21T02:36:58;99632.34;;;6.41;80.59
84995;BME280;75312;47.528;19.016;2024-02-21T02:37:29;99649.44;;;6.33;80.81
84995;BME280;75312;47.528;19.016;2024-02-21T02:38:04;99647.66;;;6.33;80.89
84995;BME280;75312;47.528;19.016;2024-02-21T02:38:37;99649.28;;;6.47;81.03
84995;BME280;75312;47.528;19.016;2024-02-21T02:39:08;99648.97;;;6.39;80.11
84995;BME280;75312;47.528;19.016;2024-02-21T02:39:38;99643.41;;;6.32;81.09
84995;BME280;75312;47.528;19.016;2024-02-21T02:40:09;99642.22;;;6.36;80.48
84995;BME280;75312;47.528;19.016;2024-02-21T02:40:43;99647.78;;;6.32;81.08
84995;BME280;75312;47.528;19.016;2024-02-21T02:41:13;99644.66;;;6.27;81.59
84995;BME280;75312;47.528;19.016;2024-02-21T02:41:44;99642.34;;;6.35;81.40
84995;BME280;75312;47.528;19.016;2024-02-21T02:42:15;99637.13;;;6.35;80.63
84995;BME280;75312;47.528;19.016;2024-02-21T02:42:45;99641.09;;;6.28;81.30
84995;BME280;75312;47.528;19.016;2024-02-21T02:43:18;99643.28;;;6.34;81.14
84995;BME280;75312;47.528;19.016;2024-02-21T02:43:52;99635.47;;;6.34;81.20
84995;BME280;75312;47.528;19.016;2024-02-21T02:44:24;99651.31;;;6.31;81.22
84995;BME280;75312;47.528;19.016;2024-02-21T02:44:59;99635.81;;;6.16;81.93
84995;BME280;75312;47.528;19.016;2024-02-21T02:45:30;99652.03;;;6.20;82.26
84995;BME280;75312;47.528;19.016;2024-02-21T02:46:02;99649.22;;;6.36;81.32
84995;BME280;75312;47.528;19.016;2024-02-21T02:46:32;99643.59;;;6.42;81.08
84995;BME280;75312;47.528;19.016;2024-02-21T02:47:06;99650.44;;;6.43;80.92
84995;BME280;75312;47.528;19.016;2024-02-21T02:47:38;99640.28;;;6.27;81.28
84995;BME280;75312;47.528;19.016;2024-02-21T02:48:12;99636.84;;;6.27;81.39
84995;BME280;75312;47.528;19.016;2024-02-21T02:48:42;99645.88;;;6.21;82.03
84995;BME280;75312;47.528;19.016;2024-02-21T02:49:13;99646.53;;;6.25;82.09
84995;BME280;75312;47.528;19.016;2024-02-21T02:49:46;99638.00;;;6.23;81.57
84995;BME280;75312;47.528;19.016;2024-02-21T02:50:21;99639.13;;;6.18;82.40
84995;BME280;75312;47.528;19.016;2024-02-21T02:50:51;99642.34;;;6.22;81.94
84995;BME280;75312;47.528;19.016;2024-02-21T02:51:25;99637.91;;;6.11;82.33